sensor_id;sensor_type;location;lat;lon;timestamp;temperature;humidity
23403;DHT22;11874;48.228;11.684;2023-03-11T00:06:28;5.80;93.10
23403;DHT22;11874;48.228;11.684;2023-03-11T00:08:56;5.70;93.10
23403;DHT22;11874;48.228;11.684;2023-03-11T00:11:24;5.70;93.40
23403;DHT22;11874;48.228;11.684;2023-03-11T00:13:51;5.70;93.30
23403;DHT22;11874;48.228;11.684;2023-03-11T00:16:19;5.70;93.30
23403;DHT22;11874;48.228;11.684;2023-03-11T00:18:49;5.80;93.00
23403;DHT22;11874;48.228;11.684;2023-03-11T00:21:18;5.70;92.50
23403;DHT22;11874;48.228;11.684;2023-03-11T00:23:47;5.60;92.50
23403;DHT22;11874;48.228;11.684;2023-03-11T00:26:15;5.70;92.30
23403;DHT22;11874;48.228;11.684;2023-03-11T00:28:43;5.60;92.00
23403;DHT22;11874;48.228;11.684;2023-03-11T00:31:11;5.60;92.10
23403;DHT22;11874;48.228;11.684;2023-03-11T00:33:39;5.70;92.00
23403;DHT22;11874;48.228;11.684;2023-03-11T00:36:19;5.80;91.90
23403;DHT22;11874;48.228;11.684;2023-03-11T00:38:49;5.60;92.10
23403;DHT22;11874;48.228;11.684;2023-03-11T00:41:17;5.70;92.10
23403;DHT22;11874;48.228;11.684;2023-03-11T00:43:45;5.60;92.00
23403;DHT22;11874;48.228;11.684;2023-03-11T00:46:13;5.60;91.80
23403;DHT22;11874;48.228;11.684;2023-03-11T00:48:41;5.70;92.30
23403;DHT22;11874;48.228;11.684;2023-03-11T00:51:12;5.70;92.00
23403;DHT22;11874;48.228;11.684;2023-03-11T00:53:40;5.60;91.90
23403;DHT22;11874;48.228;11.684;2023-03-11T00:56:11;5.60;92.30
23403;DHT22;11874;48.228;11.684;2023-03-11T00:58:40;5.60;92.20
23403;DHT22;11874;48.228;11.684;2023-03-11T01:01:10;5.60;92.10
23403;DHT22;11874;48.228;11.684;2023-03-11T01:03:39;5.60;91.70
23403;DHT22;11874;48.228;11.684;2023-03-11T11:05:42;5.10;84.20
23403;DHT22;11874;48.228;11.684;2023-03-11T11:08:15;5.20;85.50
23403;DHT22;11874;48.228;11.684;2023-03-11T11:10:49;5.30;87.70
23403;DHT22;11874;48.228;11.684;2023-03-11T11:13:19;5.80;87.90
23403;DHT22;11874;48.228;11.684;2023-03-11T11:15:57;5.60;86.70
23403;DHT22;11874;48.228;11.684;2023-03-11T11:18:28;5.50;85.50
23403;DHT22;11874;48.228;11.684;2023-03-11T11:21:04;5.50;84.90
23403;DHT22;11874;48.228;11.684;2023-03-11T11:23:36;5.50;84.80
23403;DHT22;11874;48.228;11.684;2023-03-11T11:26:09;5.40;83.70
23403;DHT22;11874;48.228;11.684;2023-03-11T11:28:40;5.50;84.60
23403;DHT22;11874;48.228;11.684;2023-03-11T11:31:19;5.60;87.00
23403;DHT22;11874;48.228;11.684;2023-03-11T11:33:50;5.70;90.00
23403;DHT22;11874;48.228;11.684;2023-03-11T11:36:21;5.70;90.20
23403;DHT22;11874;48.228;11.684;2023-03-11T11:38:50;5.70;90.20
23403;DHT22;11874;48.228;11.684;2023-03-11T11:41:20;5.80;89.40
23403;DHT22;11874;48.228;11.684;2023-03-11T11:43:51;5.80;87.80
23403;DHT22;11874;48.228;11.684;2023-03-11T11:46:23;5.90;87.50
23403;DHT22;11874;48.228;11.684;2023-03-11T11:49:07;6.50;86.80
23403;DHT22;11874;48.228;11.684;2023-03-11T11:51:40;6.00;86.30
23403;DHT22;11874;48.228;11.684;2023-03-11T11:54:14;6.00;85.90
23403;DHT22;11874;48.228;11.684;2023-03-11T11:56:44;6.10;86.50
23403;DHT22;11874;48.228;11.684;2023-03-11T11:59:17;6.00;85.60
23403;DHT22;11874;48.228;11.684;2023-03-11T12:01:59;5.90;84.00
23403;DHT22;11874;48.228;11.684;2023-03-11T12:04:45;5.90;84.10
23403;DHT22;11874;48.228;11.684;2023-03-11T12:07:28;5.90;83.20
23403;DHT22;11874;48.228;11.684;2023-03-11T12:10:04;6.00;84.10
23403;DHT22;11874;48.228;11.684;2023-03-11T12:13:05;6.10;84.60
23403;DHT22;11874;48.228;11.684;2023-03-11T12:15:42;6.30;84.30
23403;DHT22;11874;48.228;11.684;2023-03-11T12:18:16;6.30;83.60
23403;DHT22;11874;48.228;11.684;2023-03-11T12:20:50;6.30;83.20
23403;DHT22;11874;48.228;11.684;2023-03-11T12:23:34;6.30;83.00
23403;DHT22;11874;48.228;11.684;2023-03-11T12:26:13;6.40;82.80
23403;DHT22;11874;48.228;11.684;2023-03-11T12:28:45;6.30;82.40
23403;DHT22;11874;48.228;11.684;2023-03-11T12:31:15;6.30;82.40
23403;DHT22;11874;48.228;11.684;2023-03-11T12:33:46;6.40;82.80
23403;DHT22;11874;48.228;11.684;2023-03-11T12:36:39;6.40;82.50
23403;DHT22;11874;48.228;11.684;2023-03-11T12:39:32;6.50;82.90
23403;DHT22;11874;48.228;11.684;2023-03-11T12:42:21;6.50;82.50
23403;DHT22;11874;48.228;11.684;2023-03-11T12:48:33;6.70;81.60
23403;DHT22;11874;48.228;11.684;2023-03-11T12:51:59;6.60;81.70
23403;DHT22;11874;48.228;11.684;2023-03-11T12:54:30;6.70;81.70
23403;DHT22;11874;48.228;11.684;2023-03-11T12:57:02;6.70;81.10
23403;DHT22;11874;48.228;11.684;2023-03-11T12:59:55;6.70;82.00
23403;DHT22;11874;48.228;11.684;2023-03-11T13:05:36;7.00;82.50
23403;DHT22;11874;48.228;11.684;2023-03-11T13:08:11;7.10;81.60
23403;DHT22;11874;48.228;11.684;2023-03-11T13:10:43;7.30;82.30
23403;DHT22;11874;48.228;11.684;2023-03-11T13:13:32;7.40;82.20
23403;DHT22;11874;48.228;11.684;2023-03-11T13:16:39;7.40;82.40
23403;DHT22;11874;48.228;11.684;2023-03-11T13:19:36;7.40;83.10
23403;DHT22;11874;48.228;11.684;2023-03-11T13:22:09;7.80;84.10
23403;DHT22;11874;48.228;11.684;2023-03-11T17:05:09;7.90;69.40
23403;DHT22;11874;48.228;11.684;2023-03-11T17:07:39;7.60;70.30
23403;DHT22;11874;48.228;11.684;2023-03-11T17:10:08;7.60;70.30
23403;DHT22;11874;48.228;11.684;2023-03-11T17:12:36;7.50;70.70
23403;DHT22;11874;48.228;11.684;2023-03-11T17:15:05;7.50;72.40
23403;DHT22;11874;48.228;11.684;2023-03-11T17:17:34;7.50;72.40
23403;DHT22;11874;48.228;11.684;2023-03-11T17:20:02;7.40;72.20
23403;DHT22;11874;48.228;11.684;2023-03-11T17:22:33;7.40;72.10
23403;DHT22;11874;48.228;11.684;2023-03-11T17:25:01;7.40;72.50
23403;DHT22;11874;48.228;11.684;2023-03-11T17:27:29;7.40;73.20
23403;DHT22;11874;48.228;11.684;2023-03-11T17:30:00;7.30;73.20
23403;DHT22;11874;48.228;11.684;2023-03-11T17:32:28;7.30;73.40
23403;DHT22;11874;48.228;11.684;2023-03-11T17:34:56;7.30;74.10
23403;DHT22;11874;48.228;11.684;2023-03-11T17:37:24;7.30;74.40
23403;DHT22;11874;48.228;11.684;2023-03-11T17:39:54;7.30;75.30
23403;DHT22;11874;48.228;11.684;2023-03-11T17:42:21;7.20;75.40
23403;DHT22;11874;48.228;11.684;2023-03-11T17:44:54;7.20;76.00
23403;DHT22;11874;48.228;11.684;2023-03-11T17:47:22;7.10;75.30
23403;DHT22;11874;48.228;11.684;2023-03-11T17:49:51;7.10;75.90
23403;DHT22;11874;48.228;11.684;2023-03-11T17:52:19;7.10;75.80
23403;DHT22;11874;48.228;11.684;2023-03-11T17:54:48;7.10;76.20
23403;DHT22;11874;48.228;11.684;2023-03-11T17:57:17;7.00;75.20
23403;DHT22;11874;48.228;11.684;2023-03-11T17:59:48;7.00;75.20
23403;DHT22;11874;48.228;11.684;2023-03-11T18:02:16;7.00;75.20
23403;DHT22;11874;48.228;11.684;2023-03-11T18:04:48;6.90;75.40
23403;DHT22;11874;48.228;11.684;2023-03-11T18:07:18;6.80;75.80
23403;DHT22;11874;48.228;11.684;2023-03-11T18:09:50;6.90;75.80
23403;DHT22;11874;48.228;11.684;2023-03-11T18:12:20;6.80;76.00
23403;DHT22;11874;48.228;11.684;2023-03-11T18:14:48;6.80;76.00
23403;DHT22;11874;48.228;11.684;2023-03-11T18:17:15;6.80;76.00
23403;DHT22;11874;48.228;11.684;2023-03-11T18:19:44;6.70;76.00
23403;DHT22;11874;48.228;11.684;2023-03-11T18:22:12;6.70;75.90
23403;DHT22;11874;48.228;11.684;2023-03-11T18:24:41;6.70;76.20
23403;DHT22;11874;48.228;11.684;2023-03-11T18:27:08;6.60;76.30
23403;DHT22;11874;48.228;11.684;2023-03-11T18:29:38;6.60;76.80
23403;DHT22;11874;48.228;11.684;2023-03-11T18:32:05;6.60;76.80
23403;DHT22;11874;48.228;11.684;2023-03-11T18:34:33;6.60;77.00
23403;DHT22;11874;48.228;11.684;2023-03-11T18:37:01;6.60;77.00
23403;DHT22;11874;48.228;11.684;2023-03-11T18:39:29;6.50;77.30
23403;DHT22;11874;48.228;11.684;2023-03-11T18:41:57;6.50;77.60
23403;DHT22;11874;48.228;11.684;2023-03-11T18:44:25;6.50;77.80
23403;DHT22;11874;48.228;11.684;2023-03-11T18:46:54;6.40;77.70
23403;DHT22;11874;48.228;11.684;2023-03-11T18:49:22;6.40;78.00
23403;DHT22;11874;48.228;11.684;2023-03-11T18:51:50;6.40;78.80
23403;DHT22;11874;48.228;11.684;2023-03-11T18:54:18;6.40;78.20
23403;DHT22;11874;48.228;11.684;2023-03-11T18:56:45;6.40;78.20
23403;DHT22;11874;48.228;11.684;2023-03-11T18:59:13;6.30;78.20
23403;DHT22;11874;48.228;11.684;2023-03-11T19:01:41;6.30;78.50
23403;DHT22;11874;48.228;11.684;2023-03-11T19:04:10;6.30;78.60
23403;DHT22;11874;48.228;11.684;2023-03-11T19:06:38;6.30;78.60
23403;DHT22;11874;48.228;11.684;2023-03-11T19:09:06;6.20;78.70
23403;DHT22;11874;48.228;11.684;2023-03-11T19:11:36;6.20;79.00
23403;DHT22;11874;48.228;11.684;2023-03-11T19:14:04;6.20;79.40
23403;DHT22;11874;48.228;11.684;2023-03-11T19:16:32;6.20;79.30
23403;DHT22;11874;48.228;11.684;2023-03-11T19:19:00;6.20;79.60
23403;DHT22;11874;48.228;11.684;2023-03-11T19:21:29;6.20;79.40
23403;DHT22;11874;48.228;11.684;2023-03-11T19:23:57;6.20;79.80
23403;DHT22;11874;48.228;11.684;2023-03-11T19:26:25;6.20;79.80
23403;DHT22;11874;48.228;11.684;2023-03-11T19:29:10;6.20;80.00
23403;DHT22;11874;48.228;11.684;2023-03-11T19:31:39;6.10;79.90
23403;DHT22;11874;48.228;11.684;2023-03-11T19:34:06;6.10;80.10
23403;DHT22;11874;48.228;11.684;2023-03-11T19:36:36;6.10;80.50
23403;DHT22;11874;48.228;11.684;2023-03-11T19:39:04;6.20;80.60
23403;DHT22;11874;48.228;11.684;2023-03-11T19:41:33;6.00;80.30
23403;DHT22;11874;48.228;11.684;2023-03-11T19:44:01;6.20;80.80
23403;DHT22;11874;48.228;11.684;2023-03-11T19:46:29;6.10;80.60
23403;DHT22;11874;48.228;11.684;2023-03-11T19:49:00;6.10;81.30
23403;DHT22;11874;48.228;11.684;2023-03-11T19:51:28;6.10;80.70
23403;DHT22;11874;48.228;11.684;2023-03-11T19:54:13;6.10;80.30
23403;DHT22;11874;48.228;11.684;2023-03-11T19:56:42;6.00;80.10
23403;DHT22;11874;48.228;11.684;2023-03-11T19:59:10;6.00;80.30
23403;DHT22;11874;48.228;11.684;2023-03-11T20:01:37;6.00;81.00
23403;DHT22;11874;48.228;11.684;2023-03-11T20:04:07;5.90;80.90
23403;DHT22;11874;48.228;11.684;2023-03-11T20:06:36;5.90;81.00
23403;DHT22;11874;48.228;11.684;2023-03-11T20:09:04;5.90;81.20
23403;DHT22;11874;48.228;11.684;2023-03-11T20:11:40;5.80;81.70
23403;DHT22;11874;48.228;11.684;2023-03-11T20:14:09;5.90;81.50
23403;DHT22;11874;48.228;11.684;2023-03-11T20:16:39;5.80;81.60
23403;DHT22;11874;48.228;11.684;2023-03-11T20:19:07;5.80;81.60
23403;DHT22;11874;48.228;11.684;2023-03-11T20:21:38;5.80;81.80
23403;DHT22;11874;48.228;11.684;2023-03-11T20:24:11;5.80;81.80
23403;DHT22;11874;48.228;11.684;2023-03-11T20:26:41;5.70;81.70
23403;DHT22;11874;48.228;11.684;2023-03-11T20:29:09;5.70;81.70
23403;DHT22;11874;48.228;11.684;2023-03-11T20:31:37;5.70;81.80
23403;DHT22;11874;48.228;11.684;2023-03-11T20:34:05;5.70;82.10
23403;DHT22;11874;48.228;11.684;2023-03-11T20:36:36;5.60;81.70
23403;DHT22;11874;48.228;11.684;2023-03-11T20:39:05;5.40;81.80
23403;DHT22;11874;48.228;11.684;2023-03-11T20:41:37;5.60;81.90
23403;DHT22;11874;48.228;11.684;2023-03-11T20:44:11;5.50;81.80
23403;DHT22;11874;48.228;11.684;2023-03-11T20:46:42;5.50;83.10
23403;DHT22;11874;48.228;11.684;2023-03-11T20:49:10;5.50;82.90
23403;DHT22;11874;48.228;11.684;2023-03-11T20:51:38;5.50;82.80
23403;DHT22;11874;48.228;11.684;2023-03-11T20:54:07;5.50;82.60
23403;DHT22;11874;48.228;11.684;2023-03-11T20:56:35;5.50;82.90
23403;DHT22;11874;48.228;11.684;2023-03-11T20:59:03;5.40;83.10
23403;DHT22;11874;48.228;11.684;2023-03-11T21:01:35;5.40;83.20
23403;DHT22;11874;48.228;11.684;2023-03-11T21:04:03;5.30;83.30
23403;DHT22;11874;48.228;11.684;2023-03-11T21:06:33;5.30;83.30
23403;DHT22;11874;48.228;11.684;2023-03-11T21:09:04;5.30;83.70
23403;DHT22;11874;48.228;11.684;2023-03-11T21:11:32;5.20;84.50
23403;DHT22;11874;48.228;11.684;2023-03-11T21:14:01;5.30;85.00
23403;DHT22;11874;48.228;11.684;2023-03-11T21:16:29;5.30;84.80
23403;DHT22;11874;48.228;11.684;2023-03-11T21:18:58;5.20;84.70
23403;DHT22;11874;48.228;11.684;2023-03-11T21:21:31;5.20;84.80
23403;DHT22;11874;48.228;11.684;2023-03-11T21:23:59;5.20;84.80
23403;DHT22;11874;48.228;11.684;2023-03-11T21:26:28;5.20;85.00
23403;DHT22;11874;48.228;11.684;2023-03-11T21:28:55;5.10;84.90
23403;DHT22;11874;48.228;11.684;2023-03-11T21:31:24;5.20;84.90
23403;DHT22;11874;48.228;11.684;2023-03-11T21:33:56;5.20;85.10
23403;DHT22;11874;48.228;11.684;2023-03-11T21:36:26;5.10;85.00
23403;DHT22;11874;48.228;11.684;2023-03-11T21:38:55;5.10;85.10
23403;DHT22;11874;48.228;11.684;2023-03-11T21:41:25;5.00;85.30
23403;DHT22;11874;48.228;11.684;2023-03-11T21:43:54;5.10;85.50
23403;DHT22;11874;48.228;11.684;2023-03-11T21:46:24;5.10;85.70
23403;DHT22;11874;48.228;11.684;2023-03-11T21:48:53;5.10;85.60
23403;DHT22;11874;48.228;11.684;2023-03-11T21:51:22;5.00;85.60
23403;DHT22;11874;48.228;11.684;2023-03-11T21:53:52;5.00;85.90
23403;DHT22;11874;48.228;11.684;2023-03-11T21:56:20;5.00;86.10
23403;DHT22;11874;48.228;11.684;2023-03-11T21:58:49;4.90;86.30
23403;DHT22;11874;48.228;11.684;2023-03-11T22:01:16;5.00;86.20
